Time;durP1;ratioP1;P1;durP2;ratioP2;P2;SDS_P1;SDS_P2;PMS_P1;PMS_P2;Temp;Humidity;BMP_temperature;BMP_pressure;BME280_temperature;BME280_humidity;BME280_pressure;Samples;Min_cycle;Max_cycle;Signal;HPM_P1;HPM_P2
2023/06/24 00:00:40;;;;;;;9.73;6.80;;;;;;;;;;4990677;28;20072;-68
2023/06/24 00:03:07;;;;;;;12.55;6.72;;;;;;;;;;4994455;28;20081;-68
2023/06/24 00:05:33;;;;;;;16.77;6.85;;;;;;;;;;4993779;28;20546;-68
2023/06/24 00:08:02;;;;;;;9.73;6.72;;;;;;;;;;4992568;28;20034;-68
2023/06/24 00:10:29;;;;;;;11.63;6.18;;;;;;;;;;4999883;28;20028;-69
2023/06/24 00:12:55;;;;;;;12.90;6.50;;;;;;;;;;4992584;28;20038;-68
2023/06/24 00:15:21;;;;;;;10.35;6.38;;;;;;;;;;4995816;28;20041;-69
2023/06/24 00:17:46;;;;;;;13.82;7.00;;;;;;;;;;4994081;28;20431;-68
2023/06/24 00:20:14;;;;;;;7.80;6.03;;;;;;;;;;4993874;28;20028;-68
2023/06/24 00:22:43;;;;;;;14.80;6.40;;;;;;;;;;4995346;28;20084;-68
2023/06/24 00:25:10;;;;;;;7.95;5.75;;;;;;;;;;4995113;28;21148;-69
2023/06/24 00:27:35;;;;;;;8.60;6.25;;;;;;;;;;4995621;28;20026;-68
2023/06/24 00:30:01;;;;;;;12.48;6.60;;;;;;;;;;4994711;28;20109;-69
2023/06/24 00:32:27;;;;;;;16.40;7.35;;;;;;;;;;4995100;28;20026;-68
2023/06/24 00:34:52;;;;;;;13.70;7.10;;;;;;;;;;4995146;28;20065;-69
2023/06/24 00:37:18;;;;;;;13.73;7.97;;;;;;;;;;4994304;28;20034;-68
2023/06/24 00:39:44;;;;;;;13.65;7.00;;;;;;;;;;4994154;28;20420;-69
2023/06/24 00:42:10;;;;;;;12.63;8.00;;;;;;;;;;4994110;28;20030;-68
2023/06/24 00:44:39;;;;;;;14.73;7.90;;;;;;;;;;4995200;28;20038;-69
2023/06/24 00:47:05;;;;;;;11.50;6.55;;;;;;;;;;4995098;28;20037;-69
2023/06/24 00:49:32;;;;;;;13.70;7.82;;;;;;;;;;4993492;28;20096;-68
2023/06/24 00:52:00;;;;;;;13.15;7.63;;;;;;;;;;4995498;28;20026;-68
2023/06/24 00:54:30;;;;;;;7.82;6.78;;;;;;;;;;4993832;28;20088;-68
2023/06/24 00:57:00;;;;;;;8.63;6.75;;;;;;;;;;4993493;28;20122;-69
2023/06/24 00:59:29;;;;;;;11.65;6.82;;;;;;;;;;4993418;28;20046;-70
2023/06/24 01:01:55;;;;;;;13.43;6.57;;;;;;;;;;4993709;28;20038;-68
2023/06/24 01:04:21;;;;;;;11.15;7.22;;;;;;;;;;4993493;28;20033;-69
2023/06/24 01:06:47;;;;;;;10.73;6.43;;;;;;;;;;4995679;28;20034;-70
2023/06/24 01:09:13;;;;;;;8.95;6.30;;;;;;;;;;4995524;28;20606;-68
2023/06/24 01:11:39;;;;;;;10.52;6.32;;;;;;;;;;4997661;28;20080;-69
2023/06/24 01:14:05;;;;;;;10.23;6.60;;;;;;;;;;4996988;28;20018;-68
2023/06/24 01:16:55;;;;;;;10.48;6.47;;;;;;;;;;4995002;28;20515;-69
2023/06/24 01:19:38;;;;;;;9.77;6.38;;;;;;;;;;4994947;28;20042;-69
2023/06/24 01:22:17;;;;;;;11.07;6.80;;;;;;;;;;4994432;28;20030;-69
2023/06/24 01:25:13;;;;;;;13.07;7.72;;;;;;;;;;4995927;28;20117;-68
2023/06/24 01:28:10;;;;;;;9.60;6.50;;;;;;;;;;4995390;28;20038;-69
2023/06/24 01:30:54;;;;;;;9.50;6.35;;;;;;;;;;4977606;28;20073;-68
2023/06/24 01:33:26;;;;;;;14.07;7.22;;;;;;;;;;4994614;28;20057;-68
2023/06/24 01:35:54;;;;;;;15.88;7.57;;;;;;;;;;4994958;28;20171;-68
2023/06/24 01:38:46;;;;;;;11.38;6.90;;;;;;;;;;4993128;28;20041;-70
2023/06/24 01:41:15;;;;;;;10.27;6.70;;;;;;;;;;4989630;28;20054;-69
2023/06/24 01:43:43;;;;;;;11.05;6.80;;;;;;;;;;4992988;28;20492;-69
2023/06/24 01:46:12;;;;;;;13.70;7.32;;;;;;;;;;4994158;28;20057;-68
2023/06/24 01:48:41;;;;;;;9.77;6.22;;;;;;;;;;4993811;28;20029;-69
2023/06/24 01:51:12;;;;;;;13.73;7.55;;;;;;;;;;4998776;28;20515;-69
2023/06/24 01:53:42;;;;;;;12.45;7.90;;;;;;;;;;5013747;28;20500;-68
2023/06/24 01:56:10;;;;;;;16.52;8.10;;;;;;;;;;5013281;28;20113;-68
2023/06/24 01:58:37;;;;;;;14.30;8.10;;;;;;;;;;5011856;28;20121;-68
2023/06/24 02:01:04;;;;;;;16.67;8.95;;;;;;;;;;5011739;28;20034;-68
2023/06/24 02:03:32;;;;;;;15.25;8.73;;;;;;;;;;5013349;28;20036;-68
2023/06/24 02:05:59;;;;;;;15.40;9.13;;;;;;;;;;5011725;28;20030;-69
2023/06/24 02:08:28;;;;;;;14.63;8.88;;;;;;;;;;5011902;28;20569;-68
2023/06/24 02:10:55;;;;;;;19.00;10.20;;;;;;;;;;5012630;28;20032;-69
2023/06/24 02:13:22;;;;;;;19.35;10.13;;;;;;;;;;5013387;28;20104;-69
2023/06/24 02:15:50;;;;;;;13.30;9.25;;;;;;;;;;5012952;28;20120;-68
2023/06/24 02:18:17;;;;;;;12.68;9.00;;;;;;;;;;4995450;28;20560;-69
2023/06/24 02:20:44;;;;;;;17.63;9.95;;;;;;;;;;5011375;28;20034;-68
2023/06/24 02:23:12;;;;;;;17.35;10.00;;;;;;;;;;5011794;28;20030;-68
2023/06/24 02:25:38;;;;;;;11.43;8.30;;;;;;;;;;5010834;28;20034;-68
2023/06/24 02:28:05;;;;;;;13.48;9.30;;;;;;;;;;4990511;28;20028;-68
2023/06/24 02:30:36;;;;;;;13.60;9.82;;;;;;;;;;4990256;28;20038;-68
2023/06/24 02:33:02;;;;;;;12.82;9.95;;;;;;;;;;5000121;28;20030;-68
2023/06/24 02:35:28;;;;;;;21.27;10.77;;;;;;;;;;4992193;28;20495;-68
2023/06/24 02:37:55;;;;;;;12.93;9.23;;;;;;;;;;4988048;28;20041;-68
2023/06/24 02:40:21;;;;;;;19.42;8.82;;;;;;;;;;4993045;28;20034;-68
2023/06/24 02:42:47;;;;;;;15.45;9.95;;;;;;;;;;4991924;28;20095;-68
2023/06/24 02:45:14;;;;;;;19.10;10.07;;;;;;;;;;4975760;28;20097;-69
2023/06/24 02:47:43;;;;;;;18.30;9.95;;;;;;;;;;4991828;28;20559;-68
2023/06/24 02:50:11;;;;;;;19.73;10.68;;;;;;;;;;4992805;28;20117;-68
2023/06/24 02:52:38;;;;;;;17.95;8.80;;;;;;;;;;4991718;28;20062;-68
2023/06/24 02:55:08;;;;;;;19.67;9.80;;;;;;;;;;4991612;28;20551;-68
2023/06/24 02:57:50;;;;;;;16.70;8.52;;;;;;;;;;4985912;28;20030;-69
2023/06/24 03:00:39;;;;;;;13.25;8.10;;;;;;;;;;4989946;28;20042;-70
2023/06/24 03:03:08;;;;;;;14.98;8.25;;;;;;;;;;4986881;28;20074;-69
2023/06/24 03:05:37;;;;;;;15.40;9.27;;;;;;;;;;4984786;28;20022;-69
2023/06/24 03:08:04;;;;;;;14.60;9.05;;;;;;;;;;4991401;28;20121;-69
2023/06/24 03:10:31;;;;;;;11.50;8.38;;;;;;;;;;4975350;28;20383;-68
2023/06/24 03:12:57;;;;;;;18.63;10.43;;;;;;;;;;4992724;28;20027;-68
2023/06/24 03:15:31;;;;;;;18.88;10.25;;;;;;;;;;4991492;28;20129;-68
2023/06/24 03:17:58;;;;;;;17.33;10.70;;;;;;;;;;4991499;28;20113;-70
2023/06/24 03:20:23;;;;;;;21.05;11.13;;;;;;;;;;4991417;28;20057;-69
2023/06/24 03:22:52;;;;;;;16.13;9.55;;;;;;;;;;4991434;28;20073;-70
2023/06/24 03:25:18;;;;;;;51.05;14.02;;;;;;;;;;4991682;28;20027;-68
2023/06/24 03:27:47;;;;;;;16.10;9.65;;;;;;;;;;4991541;28;20034;-68
2023/06/24 03:30:14;;;;;;;14.65;10.20;;;;;;;;;;4991142;28;20046;-68
2023/06/24 03:32:46;;;;;;;18.33;10.35;;;;;;;;;;4975525;28;20029;-69
2023/06/24 03:35:13;;;;;;;13.70;9.65;;;;;;;;;;4991120;28;20037;-68
2023/06/24 03:37:39;;;;;;;12.38;9.32;;;;;;;;;;4991280;28;20026;-68
2023/06/24 03:40:06;;;;;;;16.85;12.00;;;;;;;;;;4991197;28;20176;-68
2023/06/24 03:42:32;;;;;;;12.32;9.18;;;;;;;;;;4991047;28;20030;-68
2023/06/24 03:44:57;;;;;;;15.35;9.15;;;;;;;;;;4991135;28;20393;-68
2023/06/24 03:47:23;;;;;;;18.50;10.00;;;;;;;;;;4991231;28;20042;-68
2023/06/24 03:49:49;;;;;;;10.38;8.82;;;;;;;;;;4991069;28;20492;-69
2023/06/24 03:52:15;;;;;;;13.07;8.80;;;;;;;;;;4992238;28;20093;-68
2023/06/24 03:54:44;;;;;;;10.38;8.45;;;;;;;;;;4991050;28;20019;-67
2023/06/24 03:57:13;;;;;;;13.40;9.40;;;;;;;;;;4990987;28;20048;-69
2023/06/24 03:59:38;;;;;;;15.77;10.18;;;;;;;;;;4990823;28;20018;-69
2023/06/24 04:02:07;;;;;;;22.83;10.93;;;;;;;;;;4991035;28;20036;-69
2023/06/24 04:04:34;;;;;;;13.77;9.00;;;;;;;;;;4992132;28;20583;-68
2023/06/24 04:07:03;;;;;;;15.75;10.38;;;;;;;;;;4990991;28;20569;-69
2023/06/24 04:09:29;;;;;;;14.02;9.55;;;;;;;;;;4990594;28;20022;-69
2023/06/24 04:11:55;;;;;;;18.15;11.23;;;;;;;;;;4992166;28;20038;-68
2023/06/24 04:14:21;;;;;;;15.30;9.50;;;;;;;;;;4974615;28;20040;-68
2023/06/24 04:16:46;;;;;;;15.95;9.45;;;;;;;;;;4990868;28;20186;-68
2023/06/24 04:19:12;;;;;;;13.57;9.27;;;;;;;;;;4992014;28;20167;-68
2023/06/24 04:21:38;;;;;;;14.25;8.70;;;;;;;;;;4990553;28;20034;-68
2023/06/24 04:24:04;;;;;;;11.23;9.35;;;;;;;;;;4990694;28;20037;-68
2023/06/24 04:26:30;;;;;;;15.00;9.20;;;;;;;;;;4990914;28;20081;-68
2023/06/24 04:28:56;;;;;;;10.90;8.63;;;;;;;;;;4974981;28;20034;-69
2023/06/24 04:31:22;;;;;;;11.90;8.65;;;;;;;;;;4990888;28;20034;-68
2023/06/24 04:33:48;;;;;;;11.48;9.18;;;;;;;;;;4992007;28;20033;-69
2023/06/24 04:36:14;;;;;;;13.80;9.38;;;;;;;;;;4974896;28;20100;-69
2023/06/24 04:38:39;;;;;;;13.95;10.20;;;;;;;;;;4990573;28;20096;-69
2023/06/24 04:41:05;;;;;;;13.23;8.90;;;;;;;;;;4990754;28;20034;-69
2023/06/24 04:43:31;;;;;;;17.02;8.90;;;;;;;;;;4991725;28;20101;-69
2023/06/24 04:45:56;;;;;;;10.98;7.75;;;;;;;;;;4992016;28;20037;-69
2023/06/24 04:48:26;;;;;;;13.95;8.02;;;;;;;;;;4995277;28;20046;-70
2023/06/24 04:50:54;;;;;;;10.90;7.65;;;;;;;;;;4994996;28;20089;-69
2023/06/24 04:53:20;;;;;;;10.65;8.05;;;;;;;;;;4993923;28;20033;-68
2023/06/24 04:55:46;;;;;;;13.10;7.57;;;;;;;;;;4995387;28;20041;-69
2023/06/24 04:58:12;;;;;;;10.88;7.50;;;;;;;;;;4994149;28;20026;-68
2023/06/24 05:00:38;;;;;;;12.25;8.30;;;;;;;;;;4995061;28;20034;-68
2023/06/24 05:03:03;;;;;;;10.60;7.50;;;;;;;;;;4995805;28;20094;-68
2023/06/24 05:05:29;;;;;;;12.35;7.18;;;;;;;;;;4995324;28;20045;-69
2023/06/24 05:07:55;;;;;;;15.50;7.75;;;;;;;;;;5002757;28;20437;-69
2023/06/24 05:10:20;;;;;;;10.13;7.60;;;;;;;;;;5002583;28;20034;-68
2023/06/24 05:12:46;;;;;;;13.05;8.07;;;;;;;;;;4996800;28;20392;-68
2023/06/24 05:15:12;;;;;;;12.05;7.78;;;;;;;;;;4993709;28;20034;-70
2023/06/24 05:17:39;;;;;;;8.40;7.15;;;;;;;;;;4994815;28;20404;-69
2023/06/24 05:20:06;;;;;;;11.10;7.22;;;;;;;;;;4993519;28;20042;-69
2023/06/24 05:22:31;;;;;;;9.95;7.05;;;;;;;;;;4994729;28;20033;-69
2023/06/24 05:24:57;;;;;;;11.75;7.28;;;;;;;;;;4995020;28;20031;-68
2023/06/24 05:27:23;;;;;;;8.35;6.88;;;;;;;;;;4994947;28;20459;-69
2023/06/24 05:29:49;;;;;;;11.75;6.97;;;;;;;;;;4994731;28;20058;-68
2023/06/24 05:32:17;;;;;;;10.40;7.32;;;;;;;;;;4995061;28;20022;-68
2023/06/24 05:34:43;;;;;;;10.90;7.30;;;;;;;;;;4994637;28;20113;-69
2023/06/24 05:37:08;;;;;;;17.98;7.90;;;;;;;;;;4994524;28;20026;-70
2023/06/24 05:39:34;;;;;;;8.02;6.63;;;;;;;;;;4994536;28;20042;-70
2023/06/24 05:42:00;;;;;;;12.30;7.40;;;;;;;;;;4994782;28;20046;-71
2023/06/24 05:44:26;;;;;;;10.15;6.88;;;;;;;;;;4994448;28;20440;-71
2023/06/24 05:46:51;;;;;;;11.65;7.35;;;;;;;;;;4994583;28;20038;-71
2023/06/24 05:49:18;;;;;;;10.43;6.90;;;;;;;;;;4994397;28;20034;-71
2023/06/24 05:51:43;;;;;;;11.90;7.30;;;;;;;;;;4994054;28;20041;-72
2023/06/24 05:54:09;;;;;;;11.57;7.20;;;;;;;;;;4993091;28;20034;-70
2023/06/24 05:56:36;;;;;;;8.70;6.88;;;;;;;;;;4993028;28;20497;-70
2023/06/24 05:59:02;;;;;;;20.65;7.25;;;;;;;;;;4993062;28;20488;-70
2023/06/24 06:01:28;;;;;;;9.55;7.43;;;;;;;;;;4994283;28;20033;-69
2023/06/24 06:03:53;;;;;;;11.93;6.53;;;;;;;;;;4994184;28;20104;-70
2023/06/24 06:06:19;;;;;;;12.90;6.82;;;;;;;;;;4993974;28;20035;-69
2023/06/24 06:08:45;;;;;;;11.60;6.75;;;;;;;;;;4993500;28;20054;-70
2023/06/24 06:11:10;;;;;;;7.85;6.95;;;;;;;;;;4993935;28;20038;-70
2023/06/24 06:13:36;;;;;;;13.10;6.68;;;;;;;;;;4993810;28;20042;-69
2023/06/24 06:16:02;;;;;;;11.40;7.40;;;;;;;;;;4993976;28;20026;-70
2023/06/24 06:18:27;;;;;;;12.23;7.03;;;;;;;;;;4993810;28;20054;-69
2023/06/24 06:20:53;;;;;;;13.23;8.63;;;;;;;;;;4992433;28;20077;-69
2023/06/24 06:23:19;;;;;;;7.55;6.30;;;;;;;;;;4993704;28;20408;-70
2023/06/24 06:25:45;;;;;;;14.35;7.00;;;;;;;;;;4992437;28;20030;-69
2023/06/24 06:28:10;;;;;;;9.98;5.93;;;;;;;;;;4993663;28;20034;-70
2023/06/24 06:30:36;;;;;;;10.32;6.47;;;;;;;;;;4992670;28;20468;-70
2023/06/24 06:33:02;;;;;;;11.30;6.03;;;;;;;;;;4992390;28;20105;-70
2023/06/24 06:35:28;;;;;;;12.57;6.47;;;;;;;;;;4993411;28;20072;-69
2023/06/24 06:37:54;;;;;;;9.77;6.47;;;;;;;;;;4992253;28;20042;-69
2023/06/24 06:40:21;;;;;;;6.88;5.95;;;;;;;;;;4993311;28;20560;-69
2023/06/24 06:42:47;;;;;;;9.82;6.53;;;;;;;;;;4993587;28;20037;-70
2023/06/24 06:45:13;;;;;;;12.68;6.40;;;;;;;;;;4993247;28;20026;-69
2023/06/24 06:47:39;;;;;;;7.07;6.15;;;;;;;;;;4993332;28;20030;-70
2023/06/24 06:50:05;;;;;;;7.95;6.05;;;;;;;;;;4993095;28;20053;-70
2023/06/24 06:52:31;;;;;;;7.68;6.35;;;;;;;;;;4993407;28;20044;-69
2023/06/24 06:54:56;;;;;;;19.23;7.63;;;;;;;;;;4993174;28;20403;-69
2023/06/24 06:57:22;;;;;;;8.20;6.15;;;;;;;;;;4993303;28;20038;-69
2023/06/24 06:59:50;;;;;;;12.63;6.50;;;;;;;;;;4992694;28;20034;-70
2023/06/24 07:02:17;;;;;;;12.38;7.25;;;;;;;;;;4993133;28;20412;-70
2023/06/24 07:04:43;;;;;;;6.80;6.10;;;;;;;;;;4991773;28;20548;-70
2023/06/24 07:07:09;;;;;;;11.50;6.53;;;;;;;;;;4993127;28;20049;-70
2023/06/24 07:09:34;;;;;;;11.48;6.78;;;;;;;;;;4992804;28;20065;-70
2023/06/24 07:12:01;;;;;;;9.88;6.45;;;;;;;;;;4993015;28;20124;-70
2023/06/24 07:14:27;;;;;;;10.85;6.60;;;;;;;;;;4992735;28;20034;-69
2023/06/24 07:16:53;;;;;;;8.02;6.85;;;;;;;;;;4991411;28;20161;-70
2023/06/24 07:19:18;;;;;;;9.45;6.18;;;;;;;;;;4992623;28;20022;-69
2023/06/24 07:21:44;;;;;;;9.25;6.45;;;;;;;;;;4991640;28;20034;-71
2023/06/24 07:24:10;;;;;;;9.45;6.25;;;;;;;;;;4993083;28;20023;-70
2023/06/24 07:26:36;;;;;;;9.48;6.75;;;;;;;;;;4991454;28;20061;-70
2023/06/24 07:29:02;;;;;;;9.60;6.13;;;;;;;;;;4991438;28;20039;-70
2023/06/24 07:31:27;;;;;;;9.18;6.30;;;;;;;;;;4992606;28;20113;-69
2023/06/24 07:33:54;;;;;;;11.32;6.90;;;;;;;;;;4992678;28;20124;-71
2023/06/24 07:36:20;;;;;;;11.45;6.55;;;;;;;;;;4992791;28;20049;-69
2023/06/24 07:38:47;;;;;;;12.18;6.78;;;;;;;;;;4994944;28;20030;-69
2023/06/24 07:41:13;;;;;;;9.68;6.65;;;;;;;;;;4992797;28;20042;-72
2023/06/24 07:43:39;;;;;;;10.00;6.40;;;;;;;;;;4994540;28;20033;-69
2023/06/24 07:46:04;;;;;;;10.63;5.85;;;;;;;;;;4993712;28;20034;-71
2023/06/24 07:48:30;;;;;;;11.63;7.43;;;;;;;;;;4987449;28;20046;-71
2023/06/24 07:50:56;;;;;;;7.72;5.72;;;;;;;;;;4993203;28;20453;-72
2023/06/24 07:53:21;;;;;;;7.55;5.43;;;;;;;;;;4989336;28;20034;-71
2023/06/24 07:55:47;;;;;;;13.40;7.20;;;;;;;;;;4991850;28;20038;-73
2023/06/24 07:58:13;;;;;;;6.93;5.63;;;;;;;;;;4995825;28;20026;-72
2023/06/24 08:00:40;;;;;;;12.82;5.20;;;;;;;;;;4995795;28;20037;-71
2023/06/24 08:03:05;;;;;;;5.97;4.93;;;;;;;;;;4991980;28;20034;-71
2023/06/24 08:05:32;;;;;;;10.02;5.60;;;;;;;;;;4992032;28;20428;-72
2023/06/24 08:07:59;;;;;;;12.00;5.80;;;;;;;;;;4990835;28;20484;-72
2023/06/24 08:10:25;;;;;;;10.05;5.53;;;;;;;;;;4991889;28;20049;-72
2023/06/24 08:12:51;;;;;;;6.75;6.05;;;;;;;;;;4991966;28;20030;-72
2023/06/24 08:15:17;;;;;;;8.13;5.35;;;;;;;;;;4991658;28;20109;-72
2023/06/24 08:17:42;;;;;;;8.13;5.90;;;;;;;;;;4992052;28;20077;-71
2023/06/24 08:20:09;;;;;;;7.65;5.10;;;;;;;;;;4991950;28;20113;-70
2023/06/24 08:22:34;;;;;;;7.68;5.50;;;;;;;;;;4991997;28;20030;-70
2023/06/24 08:25:00;;;;;;;7.75;5.15;;;;;;;;;;4995092;28;20066;-71
2023/06/24 08:27:26;;;;;;;8.43;6.07;;;;;;;;;;4995815;28;20026;-70
2023/06/24 08:29:52;;;;;;;7.55;5.75;;;;;;;;;;4993958;28;20046;-71
2023/06/24 08:32:17;;;;;;;7.38;5.60;;;;;;;;;;4995505;28;20038;-68
2023/06/24 08:34:43;;;;;;;8.05;5.55;;;;;;;;;;4995439;28;20046;-68
2023/06/24 08:37:09;;;;;;;13.43;5.50;;;;;;;;;;4995278;28;20481;-68
2023/06/24 08:39:36;;;;;;;7.72;5.32;;;;;;;;;;4993783;28;20034;-68
2023/06/24 08:42:02;;;;;;;10.70;5.72;;;;;;;;;;4994802;28;20061;-67
2023/06/24 08:44:28;;;;;;;7.03;5.40;;;;;;;;;;4995019;28;20498;-71
2023/06/24 08:46:54;;;;;;;10.85;4.90;;;;;;;;;;4994731;28;20138;-71
2023/06/24 08:49:23;;;;;;;8.25;5.15;;;;;;;;;;4994917;28;20026;-72
2023/06/24 08:52:07;;;;;;;8.32;5.28;;;;;;;;;;4993694;28;20026;-71
2023/06/24 08:54:38;;;;;;;6.75;4.80;;;;;;;;;;4995267;28;20053;-70
2023/06/24 08:57:06;;;;;;;10.73;5.22;;;;;;;;;;4994690;28;20037;-71
2023/06/24 08:59:33;;;;;;;6.20;5.55;;;;;;;;;;4994344;28;20052;-70
2023/06/24 09:01:59;;;;;;;5.65;4.80;;;;;;;;;;4992473;28;20050;-71
2023/06/24 09:04:24;;;;;;;9.80;5.22;;;;;;;;;;4993081;28;20327;-71
2023/06/24 09:06:50;;;;;;;6.25;5.18;;;;;;;;;;4993853;28;20050;-73
2023/06/24 09:09:20;;;;;;;6.55;4.90;;;;;;;;;;4994913;28;20033;-72
2023/06/24 09:11:53;;;;;;;8.48;5.00;;;;;;;;;;4993208;28;20400;-71
2023/06/24 09:14:20;;;;;;;6.30;5.20;;;;;;;;;;4994846;28;20046;-72
2023/06/24 09:16:54;;;;;;;7.00;4.57;;;;;;;;;;4995653;28;20113;-71
2023/06/24 09:19:22;;;;;;;6.20;5.07;;;;;;;;;;4995302;28;20046;-71
2023/06/24 09:21:48;;;;;;;13.50;5.72;;;;;;;;;;4995159;28;20058;-71
2023/06/24 09:24:15;;;;;;;6.78;5.07;;;;;;;;;;4995384;28;20066;-71
2023/06/24 09:26:46;;;;;;;11.05;5.40;;;;;;;;;;4993604;28;20488;-71
2023/06/24 09:29:14;;;;;;;10.98;5.72;;;;;;;;;;4994544;28;20168;-71
2023/06/24 09:31:52;;;;;;;10.27;5.38;;;;;;;;;;4994781;28;20100;-71
2023/06/24 09:34:19;;;;;;;10.18;5.68;;;;;;;;;;4994394;28;20092;-72
2023/06/24 09:36:52;;;;;;;11.85;6.05;;;;;;;;;;4994741;28;20084;-72
2023/06/24 09:39:18;;;;;;;6.95;5.28;;;;;;;;;;4994686;28;20128;-73
2023/06/24 09:41:50;;;;;;;8.10;5.53;;;;;;;;;;4995082;28;20523;-71
2023/06/24 09:44:18;;;;;;;8.77;5.13;;;;;;;;;;4998936;28;20038;-72
2023/06/24 09:46:45;;;;;;;7.72;5.18;;;;;;;;;;5001117;28;20030;-72
2023/06/24 09:49:12;;;;;;;10.13;5.32;;;;;;;;;;5003266;28;20092;-73
2023/06/24 09:51:40;;;;;;;8.40;5.30;;;;;;;;;;4998492;28;20026;-73
2023/06/24 09:54:06;;;;;;;6.88;5.43;;;;;;;;;;4995524;28;20038;-72
2023/06/24 09:56:39;;;;;;;9.07;5.45;;;;;;;;;;4995020;28;20030;-73
2023/06/24 09:59:06;;;;;;;9.80;5.88;;;;;;;;;;4994396;28;20488;-73
2023/06/24 10:01:39;;;;;;;9.05;5.38;;;;;;;;;;4994191;28;20045;-73
2023/06/24 10:04:10;;;;;;;7.18;5.22;;;;;;;;;;4994194;28;20527;-73
2023/06/24 10:06:36;;;;;;;7.75;4.90;;;;;;;;;;4994245;28;20038;-72
2023/06/24 10:09:02;;;;;;;6.90;5.07;;;;;;;;;;4994353;28;20034;-72
2023/06/24 10:11:30;;;;;;;6.82;4.90;;;;;;;;;;4994108;28;20039;-73
2023/06/24 10:13:57;;;;;;;10.10;5.72;;;;;;;;;;4994195;28;20030;-73
2023/06/24 10:16:23;;;;;;;8.95;5.15;;;;;;;;;;4993843;28;20031;-72
2023/06/24 10:18:49;;;;;;;10.38;5.45;;;;;;;;;;4992181;28;20031;-72
2023/06/24 10:21:16;;;;;;;13.75;5.13;;;;;;;;;;4992489;28;20069;-74
2023/06/24 10:23:53;;;;;;;6.80;5.25;;;;;;;;;;4993877;28;20092;-74
2023/06/24 10:26:35;;;;;;;8.85;5.10;;;;;;;;;;4994130;28;20089;-72
2023/06/24 10:29:10;;;;;;;9.18;5.22;;;;;;;;;;4993972;28;20038;-72
2023/06/24 10:31:39;;;;;;;7.72;5.10;;;;;;;;;;4993726;28;20481;-72
2023/06/24 10:34:27;;;;;;;11.30;5.50;;;;;;;;;;4993612;28;20026;-72
2023/06/24 10:36:59;;;;;;;8.50;5.20;;;;;;;;;;4993435;28;20038;-71
2023/06/24 10:39:50;;;;;;;10.38;5.45;;;;;;;;;;4993470;28;20492;-72
2023/06/24 10:42:41;;;;;;;10.73;4.97;;;;;;;;;;4993730;28;20030;-72
2023/06/24 10:45:10;;;;;;;6.57;5.07;;;;;;;;;;4992986;28;20042;-73
2023/06/24 10:48:03;;;;;;;6.85;5.05;;;;;;;;;;4993417;28;20034;-72
2023/06/24 10:50:29;;;;;;;6.88;4.78;;;;;;;;;;4993540;28;20114;-72
2023/06/24 10:52:58;;;;;;;5.35;4.60;;;;;;;;;;4993833;28;20065;-72
2023/06/24 10:55:25;;;;;;;6.78;5.15;;;;;;;;;;4992175;28;20038;-73
2023/06/24 10:57:51;;;;;;;7.05;5.15;;;;;;;;;;4993368;28;20026;-72
2023/06/24 11:00:17;;;;;;;8.80;5.30;;;;;;;;;;4993421;28;20044;-73
2023/06/24 11:02:44;;;;;;;6.30;5.30;;;;;;;;;;4993204;28;20042;-72
2023/06/24 11:05:11;;;;;;;8.27;4.85;;;;;;;;;;4993041;28;20481;-72
2023/06/24 11:07:40;;;;;;;8.73;5.90;;;;;;;;;;4993183;28;20030;-72
2023/06/24 11:10:14;;;;;;;8.70;5.63;;;;;;;;;;4992840;28;20093;-72
2023/06/24 11:12:41;;;;;;;7.57;5.78;;;;;;;;;;4993160;28;20046;-72
2023/06/24 11:15:09;;;;;;;6.35;5.47;;;;;;;;;;4993307;28;20121;-71
2023/06/24 11:17:36;;;;;;;11.88;6.32;;;;;;;;;;4992697;28;20050;-71
2023/06/24 11:20:06;;;;;;;8.73;5.03;;;;;;;;;;4992390;28;20050;-72
2023/06/24 11:22:32;;;;;;;11.30;7.68;;;;;;;;;;4992910;28;20038;-73
2023/06/24 11:24:59;;;;;;;16.05;13.30;;;;;;;;;;4992419;28;20037;-73
2023/06/24 11:27:29;;;;;;;9.23;6.38;;;;;;;;;;4992789;28;20528;-71
2023/06/24 11:30:02;;;;;;;7.85;5.95;;;;;;;;;;4992814;28;20117;-72
2023/06/24 11:32:41;;;;;;;8.23;5.97;;;;;;;;;;4992566;28;20089;-73
2023/06/24 11:35:09;;;;;;;11.13;6.43;;;;;;;;;;4992741;28;20040;-71
2023/06/24 11:37:35;;;;;;;11.82;5.80;;;;;;;;;;4992683;28;20101;-71
2023/06/24 11:40:06;;;;;;;6.90;5.10;;;;;;;;;;4992744;28;20050;-71
2023/06/24 11:42:37;;;;;;;7.97;5.25;;;;;;;;;;4993044;28;20034;-71
2023/06/24 11:45:04;;;;;;;6.68;5.00;;;;;;;;;;4992904;28;20065;-72
2023/06/24 11:47:35;;;;;;;12.45;5.35;;;;;;;;;;4992858;28;20030;-72
2023/06/24 11:50:02;;;;;;;8.23;5.10;;;;;;;;;;4992500;28;20226;-71
2023/06/24 11:52:45;;;;;;;8.43;5.03;;;;;;;;;;4992533;28;20137;-72
2023/06/24 11:55:18;;;;;;;7.20;4.82;;;;;;;;;;4992980;28;20038;-72
2023/06/24 11:57:57;;;;;;;7.35;4.70;;;;;;;;;;4995863;28;20034;-72
2023/06/24 12:00:28;;;;;;;11.02;5.43;;;;;;;;;;4996289;28;20121;-72
2023/06/24 12:03:05;;;;;;;7.80;5.32;;;;;;;;;;4996823;28;20049;-73
2023/06/24 12:05:32;;;;;;;8.45;5.35;;;;;;;;;;4996588;28;20062;-71
2023/06/24 12:08:00;;;;;;;9.88;5.15;;;;;;;;;;4993690;28;20026;-73
2023/06/24 12:10:28;;;;;;;10.00;5.03;;;;;;;;;;4996079;28;20026;-74
2023/06/24 12:12:56;;;;;;;8.13;5.30;;;;;;;;;;4996165;28;20057;-73
2023/06/24 12:15:22;;;;;;;7.38;5.80;;;;;;;;;;4996219;28;20145;-72
2023/06/24 12:17:48;;;;;;;8.07;5.32;;;;;;;;;;4996267;28;20062;-72
2023/06/24 12:20:15;;;;;;;8.77;5.20;;;;;;;;;;4995080;28;20822;-73
2023/06/24 12:22:41;;;;;;;9.40;5.53;;;;;;;;;;5000047;28;20504;-71
2023/06/24 12:25:09;;;;;;;7.63;5.80;;;;;;;;;;5000735;28;20030;-71
2023/06/24 12:27:35;;;;;;;7.35;5.40;;;;;;;;;;4995635;28;20028;-73
2023/06/24 12:30:04;;;;;;;7.07;5.25;;;;;;;;;;4995536;28;20034;-72
2023/06/24 12:32:30;;;;;;;8.30;5.40;;;;;;;;;;4996518;28;20040;-73
2023/06/24 12:34:55;;;;;;;7.18;5.03;;;;;;;;;;4978122;28;20420;-74
2023/06/24 12:37:22;;;;;;;7.95;5.10;;;;;;;;;;4994080;28;20049;-74
2023/06/24 12:39:47;;;;;;;9.05;5.22;;;;;;;;;;4995730;28;20404;-74
2023/06/24 12:42:13;;;;;;;10.50;5.32;;;;;;;;;;4993959;28;20038;-72
2023/06/24 12:44:39;;;;;;;6.90;5.13;;;;;;;;;;4995362;28;20033;-75
2023/06/24 12:47:05;;;;;;;8.70;5.32;;;;;;;;;;4993311;28;20038;-74
2023/06/24 12:49:32;;;;;;;8.32;5.00;;;;;;;;;;4993779;28;20034;-73
2023/06/24 12:51:58;;;;;;;7.78;5.10;;;;;;;;;;4995080;28;20065;-73
2023/06/24 12:54:24;;;;;;;6.80;5.25;;;;;;;;;;4995027;28;20102;-73
2023/06/24 12:56:49;;;;;;;6.95;5.07;;;;;;;;;;4994932;28;20445;-75
2023/06/24 12:59:16;;;;;;;6.93;5.15;;;;;;;;;;4995104;28;20042;-73
2023/06/24 13:01:44;;;;;;;7.72;5.25;;;;;;;;;;4995202;28;20041;-73
2023/06/24 13:04:11;;;;;;;5.50;4.95;;;;;;;;;;4995292;28;20121;-72
2023/06/24 13:06:37;;;;;;;9.15;5.30;;;;;;;;;;4993697;28;20073;-73
2023/06/24 13:09:04;;;;;;;8.95;5.38;;;;;;;;;;4992893;28;20056;-74
2023/06/24 13:11:30;;;;;;;6.25;4.70;;;;;;;;;;4994824;28;20030;-73
2023/06/24 13:13:56;;;;;;;7.93;5.55;;;;;;;;;;4993793;28;20109;-74
2023/06/24 13:16:21;;;;;;;8.60;5.22;;;;;;;;;;4994732;28;20088;-73
2023/06/24 13:18:47;;;;;;;7.63;5.20;;;;;;;;;;4994788;28;20109;-73
2023/06/24 13:21:13;;;;;;;6.25;5.18;;;;;;;;;;4995005;28;20399;-73
2023/06/24 13:23:39;;;;;;;6.05;5.25;;;;;;;;;;4993152;28;20034;-75
2023/06/24 13:26:06;;;;;;;6.78;5.03;;;;;;;;;;4994006;28;20113;-73
2023/06/24 13:28:34;;;;;;;7.85;4.97;;;;;;;;;;4993808;28;20558;-73
2023/06/24 13:31:00;;;;;;;6.63;5.28;;;;;;;;;;4993516;28;20077;-74
2023/06/24 13:33:25;;;;;;;8.75;5.18;;;;;;;;;;4993171;28;20030;-74
2023/06/24 13:35:52;;;;;;;9.93;4.88;;;;;;;;;;4993143;28;20038;-74
2023/06/24 13:38:17;;;;;;;8.00;4.93;;;;;;;;;;4994106;28;20038;-74
2023/06/24 13:40:43;;;;;;;5.93;5.10;;;;;;;;;;4993765;28;20084;-75
2023/06/24 13:43:09;;;;;;;7.03;4.60;;;;;;;;;;4986728;28;20034;-75
2023/06/24 13:45:35;;;;;;;6.70;4.80;;;;;;;;;;4991964;28;20080;-75
2023/06/24 13:48:02;;;;;;;5.63;4.80;;;;;;;;;;4990494;28;20570;-73
2023/06/24 13:50:29;;;;;;;7.50;4.60;;;;;;;;;;4993153;28;20109;-74
2023/06/24 13:52:55;;;;;;;6.07;4.80;;;;;;;;;;4992756;28;20489;-73
2023/06/24 13:55:22;;;;;;;7.00;5.00;;;;;;;;;;4993074;28;20023;-73
2023/06/24 13:57:47;;;;;;;5.78;4.55;;;;;;;;;;4993831;28;20034;-73
2023/06/24 14:00:14;;;;;;;6.05;4.63;;;;;;;;;;4994050;28;20513;-74
2023/06/24 14:02:41;;;;;;;5.22;4.50;;;;;;;;;;4994014;28;20034;-73
2023/06/24 14:05:07;;;;;;;7.78;4.70;;;;;;;;;;4993695;28;20044;-73
2023/06/24 14:07:34;;;;;;;7.32;4.43;;;;;;;;;;4992279;28;20084;-72
2023/06/24 14:09:59;;;;;;;6.65;4.82;;;;;;;;;;4992683;28;20101;-74
2023/06/24 14:12:25;;;;;;;7.47;5.07;;;;;;;;;;4992538;28;20129;-73
2023/06/24 14:14:51;;;;;;;8.30;4.65;;;;;;;;;;4993646;28;20026;-73
2023/06/24 14:17:18;;;;;;;7.63;5.20;;;;;;;;;;4993752;28;20035;-72
2023/06/24 14:19:46;;;;;;;8.57;5.22;;;;;;;;;;4992585;28;20023;-71
2023/06/24 14:22:12;;;;;;;8.45;5.05;;;;;;;;;;4997155;28;20092;-72
2023/06/24 14:24:38;;;;;;;5.78;4.82;;;;;;;;;;4993779;28;20575;-71
2023/06/24 14:27:06;;;;;;;7.80;5.15;;;;;;;;;;4991971;28;20042;-73
2023/06/24 14:29:31;;;;;;;45.90;5.45;;;;;;;;;;4992904;28;20117;-71
2023/06/24 14:31:57;;;;;;;45.70;5.10;;;;;;;;;;4993497;28;20105;-71
2023/06/24 14:34:23;;;;;;;50.72;4.82;;;;;;;;;;4993177;28;20088;-72
2023/06/24 14:36:49;;;;;;;26.58;3.85;;;;;;;;;;4993369;28;20045;-72
2023/06/24 14:39:16;;;;;;;30.73;4.20;;;;;;;;;;4993988;28;20022;-72